Monday, February 19, 2018, 10:11 AM GMT
Back to Local

CYQI, Yarmouth, N. S.

Location: , , Canada Lat: 43.833
Local Time: 10:11 AM GMT (10:11 GMT) Lon: -66.083
Time Zone: GMT Elev: 141 ft

Show me the last for .
Show Coded

Time T Td Feel RH Dir Speed Gust Alt SLP Vis Weather Sky Remarks
2018-02-19 09:00 25 23 20 92 180° 3 - 30.54 30.55 15 CLR None
2018-02-19 08:00 25 21 - 85 Variable 2 - 30.52 30.53 15 CLR None
2018-02-19 07:00 27 21 - 79 360° 2 - 30.51 30.52 15 FEW028 None
2018-02-19 06:00 30 19 25 63 330° 5 - 30.51 30.52 15 FEW040 None
2018-02-19 05:00 32 23 24 68 330° 9 - 30.48 30.49 15 CLR None
2018-02-19 04:00 32 23 25 68 350° 8 - 30.46 30.47 15 CLR Pressure rising rapidly
2018-02-19 03:00 32 23 20 68 330° 10 18 30.44 30.45 15 CLR None
2018-02-19 02:00 34 23 25 64 330° 12 - 30.41 30.42 15 FEW040 Pressure rising rapidly
2018-02-19 01:00 34 25 22 69 330° 15 23 30.38 30.39 15 SCT035 Pressure rising rapidly
2018-02-19 00:00 34 25 22 69 330° 14 20 30.33 30.34 15 BKN033 Pressure rising rapidly
2018-02-18 23:00 32 28 26 86 330° 6 - 30.25 30.26 15 SCT025 None
2018-02-18 22:00 34 28 25 80 340° 12 - 30.23 30.24 15 BKN024 None
2018-02-18 21:00 34 32 24 93 330° 14 - 30.16 30.17 15 FEW008 BKN036 Pressure rising rapidly
2018-02-18 20:00 36 30 27 80 350° 14 - 30.09 30.10 15 FEW008 BKN054 None
2018-02-18 19:00 34 30 21 86 340° 15 25 30.06 30.07 15 FEW008 SCT028 BKN050 None
2018-02-18 18:00 36 30 29 80 340° 9 - 30.01 30.02 15 FEW008 BKN120 None
2018-02-18 17:11 34 30 27 86 10° 8 - 29.99 30.00 15 SCT008 BKN068 None
2018-02-18 17:00 34 30 26 86 10° 10 - 29.98 29.99 12 -SN FEW008 OVC058 Pressure rising rapidly
2018-02-18 16:00 32 30 23 92 30° 12 - 29.94 29.95 3 -SN OVC045 None
2018-02-18 15:49 32 30 23 92 30° 12 - 29.94 29.95 2 -SN OVC040 Pressure rising rapidly
2018-02-18 15:20 32 30 23 92 40° 12 - 29.91 29.92 0 -SN VV012 None
2018-02-18 15:00 30 30 20 100 50° 13 - 29.91 29.92 0 SN VV009 None
2018-02-18 14:40 30 28 21 92 50° 12 - 29.91 29.92 0 SN VV009 None
2018-02-18 14:00 30 28 20 92 60° 14 - 29.92 29.93 0 -SN VV011 Pressure rising rapidly
2018-02-18 13:00 28 28 15 100 60° 14 20 29.89 29.90 0 -SN VV013 None
2018-02-18 12:29 28 27 16 92 70° 12 17 29.90 29.91 0 -SN VV011 None
2018-02-18 12:25 28 27 16 92 80° 13 18 29.90 29.91 1 -SN VV014 FEW005 None
2018-02-18 12:13 28 27 18 92 90° 13 - 29.91 29.92 0 -SN VV009 FEW004 None
2018-02-18 12:00 28 27 16 92 80° 12 17 29.92 29.93 0 SN VV007 None
2018-02-18 11:56 28 27 16 92 80° 12 17 29.92 29.93 0 SN VV007 None
2018-02-18 11:33 28 27 15 92 90° 14 21 29.94 29.95 0 -SN VV010 FEW004 None
2018-02-18 11:27 28 27 14 92 90° 14 23 29.93 29.95 0 SN VV008 SCT004 Pressure falling rapidly
2018-02-18 11:21 28 27 15 92 90° 13 22 29.94 29.95 0 -SN VV009 SCT005 None
2018-02-18 11:16 28 27 17 92 100° 15 - 29.95 29.97 1 -SN VV015 None
2018-02-18 11:00 28 27 17 92 100° 14 - 29.95 29.96 1 -SN VV009 Pressure falling rapidly
2018-02-18 10:53 28 27 18 92 90° 12 - 29.95 29.97 1 -SN VV010 Pressure falling rapidly
2018-02-18 10:42 28 25 19 86 100° 10 - 29.97 29.98 2 -SN VV018 None
2018-02-18 10:30 28 25 18 86 100° 13 - 29.97 29.98 1 -SN VV012 None
2018-02-18 10:21 28 25 18 86 100° 12 - 29.98 29.99 7 -SN OVC065 Pressure falling rapidly

Support USWX by starting your Amazon purchase here.